createdAt,value
2018-08-09T00:01:10.458Z,18.30
2018-08-09T00:03:39.077Z,14.27
2018-08-09T00:06:07.749Z,14.93
2018-08-09T00:08:36.352Z,12.10
2018-08-09T00:11:04.917Z,16.43
2018-08-09T00:13:33.514Z,28.53
2018-08-09T00:16:02.089Z,15.00
2018-08-09T00:18:30.724Z,12.17
2018-08-09T00:20:59.359Z,20.37
2018-08-09T00:23:27.959Z,15.53
2018-08-09T00:25:56.534Z,18.37
2018-08-09T00:28:25.184Z,12.03
2018-08-09T00:30:53.763Z,13.13
2018-08-09T00:33:22.392Z,16.47
2018-08-09T00:35:50.972Z,18.03
2018-08-09T00:38:19.564Z,12.90
2018-08-09T00:40:48.431Z,11.60
2018-08-09T00:43:17.024Z,21.27
2018-08-09T00:45:45.676Z,13.80
2018-08-09T00:48:14.337Z,12.13
2018-08-09T00:50:42.937Z,12.63
2018-08-09T00:53:11.591Z,14.20
2018-08-09T00:55:40.169Z,14.90
2018-08-09T00:58:08.776Z,13.80
2018-08-09T01:00:37.367Z,16.13
2018-08-09T01:03:06.009Z,16.90
2018-08-09T01:05:35.582Z,18.20
2018-08-09T01:08:04.259Z,19.73
2018-08-09T01:10:32.837Z,22.60
2018-08-09T01:13:01.401Z,11.53
2018-08-09T01:15:30.023Z,15.03
2018-08-09T01:17:58.653Z,14.67
2018-08-09T01:20:27.285Z,25.83
2018-08-09T01:22:55.929Z,12.40
2018-08-09T01:25:24.533Z,12.70
2018-08-09T01:27:53.109Z,10.63
2018-08-09T01:30:21.752Z,13.87
2018-08-09T01:32:51.268Z,12.87
2018-08-09T01:35:19.941Z,13.90
2018-08-09T01:37:48.509Z,15.70
2018-08-09T01:40:17.121Z,18.57
2018-08-09T01:42:56.848Z,16.40
2018-08-09T01:45:25.433Z,20.03
2018-08-09T01:47:54.002Z,9.47
2018-08-09T01:50:22.650Z,12.80
2018-08-09T01:52:51.224Z,14.53
2018-08-09T01:55:19.836Z,11.97
2018-08-09T01:57:48.468Z,15.80
2018-08-09T02:00:17.104Z,13.27
2018-08-09T02:02:45.684Z,13.60
2018-08-09T02:05:14.326Z,12.53
2018-08-09T02:07:42.900Z,10.20
2018-08-09T02:10:11.514Z,13.33
2018-08-09T02:12:40.089Z,17.93
2018-08-09T02:15:08.705Z,22.90
2018-08-09T02:17:37.578Z,21.30
2018-08-09T02:20:06.256Z,11.40
2018-08-09T02:22:34.862Z,16.53
2018-08-09T02:25:03.548Z,11.43
2018-08-09T02:27:32.187Z,13.10
2018-08-09T02:30:00.813Z,14.17
2018-08-09T02:32:29.384Z,17.30
2018-08-09T02:34:58.010Z,15.17
2018-08-09T02:37:26.624Z,14.07
2018-08-09T02:39:55.236Z,14.13
2018-08-09T02:42:23.946Z,12.93
2018-08-09T02:44:52.520Z,11.63
2018-08-09T02:47:21.149Z,11.20
2018-08-09T02:49:49.737Z,17.37
2018-08-09T02:52:18.341Z,22.00
2018-08-09T02:54:46.913Z,16.67
2018-08-09T02:57:15.568Z,16.73
2018-08-09T02:59:44.135Z,21.87
2018-08-09T03:02:12.736Z,21.17
2018-08-09T03:04:41.329Z,20.17
2018-08-09T03:07:10.209Z,13.57
2018-08-09T03:09:38.792Z,12.93
2018-08-09T03:12:07.405Z,18.83
2018-08-09T03:14:35.981Z,16.40
2018-08-09T03:17:04.581Z,15.60
2018-08-09T03:19:33.189Z,11.73
2018-08-09T03:22:01.787Z,24.60
2018-08-09T03:24:30.448Z,19.43
2018-08-09T03:26:58.997Z,12.40
2018-08-09T03:29:27.681Z,16.90
2018-08-09T03:31:56.354Z,17.83
2018-08-09T03:34:24.936Z,11.87
2018-08-09T03:36:53.562Z,15.17
2018-08-09T03:39:22.137Z,13.97
2018-08-09T03:41:50.762Z,16.30
2018-08-09T03:44:19.320Z,19.77
2018-08-09T03:46:47.945Z,15.80
2018-08-09T03:49:16.503Z,10.27
2018-08-09T03:51:45.106Z,18.40
2018-08-09T03:54:13.665Z,15.40
2018-08-09T03:56:42.260Z,14.00
2018-08-09T03:59:10.837Z,15.50
2018-08-09T04:01:39.496Z,12.90
2018-08-09T04:04:08.355Z,14.87
2018-08-09T04:06:36.984Z,13.73
2018-08-09T04:09:08.513Z,17.57
2018-08-09T04:11:37.125Z,12.73
2018-08-09T04:14:05.781Z,22.03
2018-08-09T04:16:34.493Z,19.83
2018-08-09T04:19:03.108Z,14.50
2018-08-09T04:21:31.708Z,17.50
2018-08-09T04:24:00.306Z,9.67
2018-08-09T04:26:28.901Z,20.47
2018-08-09T04:28:57.535Z,22.17
2018-08-09T04:31:26.235Z,16.30
2018-08-09T04:33:54.833Z,18.73
2018-08-09T04:36:23.453Z,18.33
2018-08-09T04:38:52.073Z,14.37
2018-08-09T04:41:20.682Z,15.33
2018-08-09T04:43:49.280Z,17.93
2018-08-09T04:46:17.845Z,16.23
2018-08-09T04:48:46.449Z,16.83
2018-08-09T04:51:15.138Z,14.97
2018-08-09T04:53:43.729Z,15.47
2018-08-09T04:56:12.304Z,19.23
2018-08-09T04:58:40.898Z,15.80
2018-08-09T05:01:09.516Z,13.33
2018-08-09T05:03:38.258Z,13.97
2018-08-09T05:06:06.869Z,17.90
2018-08-09T05:08:35.458Z,14.40
2018-08-09T05:11:05.730Z,16.67
2018-08-09T05:13:34.331Z,21.83
2018-08-09T05:16:03.010Z,17.40
2018-08-09T05:18:31.654Z,13.87
2018-08-09T05:21:00.304Z,22.20
2018-08-09T05:23:28.912Z,18.87
2018-08-09T05:25:57.477Z,28.83
2018-08-09T05:28:26.098Z,20.83
2018-08-09T05:30:54.718Z,22.17
2018-08-09T05:33:23.332Z,16.40
2018-08-09T05:35:51.913Z,16.23
2018-08-09T05:38:20.505Z,16.30
2018-08-09T05:40:49.493Z,17.20
2018-08-09T05:43:18.138Z,14.90
2018-08-09T05:45:46.748Z,17.37
2018-08-09T05:48:15.345Z,13.30
2018-08-09T05:50:43.922Z,13.53
2018-08-09T05:53:12.597Z,21.60
2018-08-09T05:55:41.146Z,20.47
2018-08-09T05:58:09.717Z,20.30
2018-08-09T06:00:38.341Z,13.30
2018-08-09T06:03:07.137Z,17.40
2018-08-09T06:05:35.812Z,23.20
2018-08-09T06:08:04.444Z,16.13
2018-08-09T06:10:33.036Z,17.67
2018-08-09T06:13:01.601Z,14.27
2018-08-09T06:15:30.217Z,18.10
2018-08-09T06:17:58.791Z,25.90
2018-08-09T06:20:27.384Z,18.47
2018-08-09T06:22:55.971Z,18.10
2018-08-09T06:25:24.692Z,19.83
2018-08-09T06:27:53.308Z,27.53
2018-08-09T06:30:22.102Z,12.77
2018-08-09T06:32:51.334Z,20.23
2018-08-09T06:35:19.950Z,18.63
2018-08-09T06:37:48.541Z,13.83
2018-08-09T06:40:17.162Z,18.80
2018-08-09T06:42:45.849Z,14.03
2018-08-09T06:45:14.453Z,15.70
2018-08-09T06:47:43.115Z,17.57
2018-08-09T06:50:12.330Z,13.93
2018-08-09T06:52:40.979Z,14.10
2018-08-09T06:55:09.626Z,15.17
2018-08-09T06:57:38.216Z,20.60
2018-08-09T07:00:09.261Z,11.40
2018-08-09T07:02:37.988Z,11.13
2018-08-09T07:05:06.717Z,13.40
2018-08-09T07:07:35.297Z,16.70
2018-08-09T07:10:04.217Z,20.73
2018-08-09T07:12:32.781Z,8.20
2018-08-09T07:15:01.432Z,19.73
2018-08-09T07:17:30.030Z,18.83
2018-08-09T07:19:58.636Z,9.23
2018-08-09T07:22:27.253Z,16.93
2018-08-09T07:24:55.839Z,15.80
2018-08-09T07:27:24.420Z,13.40
2018-08-09T07:29:53.045Z,17.13
2018-08-09T07:32:21.657Z,14.73
2018-08-09T07:34:50.288Z,17.00
2018-08-09T07:37:18.926Z,15.20
2018-08-09T07:39:47.531Z,18.50
2018-08-09T07:42:16.138Z,16.10
2018-08-09T07:44:44.706Z,16.30
2018-08-09T07:47:13.357Z,13.90
2018-08-09T07:49:41.942Z,19.07
2018-08-09T07:52:10.595Z,14.10
2018-08-09T07:54:39.215Z,17.03
2018-08-09T07:57:07.966Z,16.83
2018-08-09T07:59:36.561Z,12.27
2018-08-09T08:02:05.277Z,13.10
2018-08-09T08:04:33.875Z,16.10
2018-08-09T08:07:02.489Z,13.77
2018-08-09T08:09:31.059Z,12.50
2018-08-09T08:11:59.661Z,9.13
2018-08-09T08:14:28.286Z,12.77
2018-08-09T08:16:56.931Z,16.60
2018-08-09T08:19:25.569Z,13.30
2018-08-09T08:21:54.221Z,14.27
2018-08-09T08:24:22.814Z,18.10
2018-08-09T08:26:51.468Z,12.37
2018-08-09T08:29:20.233Z,14.27
2018-08-09T08:31:48.877Z,12.10
2018-08-09T08:34:17.484Z,13.27
2018-08-09T08:36:46.108Z,17.60
2018-08-09T08:39:14.817Z,12.77
2018-08-09T08:41:43.493Z,12.30
2018-08-09T08:44:12.118Z,15.23
2018-08-09T08:46:40.713Z,13.37
2018-08-09T08:49:09.308Z,12.47
2018-08-09T08:51:37.957Z,12.53
2018-08-09T08:54:06.757Z,17.33
2018-08-09T08:56:35.366Z,19.37
2018-08-09T08:59:04.041Z,19.27
2018-08-09T09:01:32.597Z,13.57
2018-08-09T09:04:01.212Z,11.53
2018-08-09T09:06:29.797Z,9.00
2018-08-09T09:08:58.392Z,14.87
2018-08-09T09:11:27.029Z,17.10
2018-08-09T09:13:55.622Z,17.73
2018-08-09T09:16:24.218Z,15.00
2018-08-09T09:18:52.866Z,11.63
2018-08-09T09:21:21.462Z,11.90
2018-08-09T09:23:50.069Z,19.47
2018-08-09T09:26:18.653Z,18.63
2018-08-09T09:28:47.272Z,18.40
2018-08-09T09:31:15.897Z,18.43
2018-08-09T09:33:44.519Z,11.30
2018-08-09T09:36:13.117Z,19.60
2018-08-09T09:38:41.707Z,17.97
2018-08-09T09:41:13.149Z,18.43
2018-08-09T09:43:41.746Z,15.60
2018-08-09T09:46:10.440Z,15.07
2018-08-09T09:48:39.137Z,15.33
2018-08-09T09:51:07.821Z,13.67
2018-08-09T09:53:36.409Z,14.87
2018-08-09T09:56:05.000Z,14.93
2018-08-09T09:58:33.600Z,17.17
2018-08-09T10:01:07.367Z,12.23
2018-08-09T10:03:35.957Z,9.00
2018-08-09T10:06:04.567Z,17.40
2018-08-09T10:08:33.160Z,15.10
2018-08-09T10:11:01.723Z,9.60
2018-08-09T10:13:30.324Z,19.03
2018-08-09T10:15:58.876Z,10.77
2018-08-09T10:18:27.488Z,12.33
2018-08-09T10:20:56.125Z,9.97
2018-08-09T10:23:24.689Z,16.70
2018-08-09T10:25:53.277Z,20.63
2018-08-09T10:28:21.848Z,8.77
2018-08-09T10:30:50.472Z,11.63
2018-08-09T10:33:19.064Z,14.37
2018-08-09T10:35:47.644Z,8.83
2018-08-09T10:38:16.210Z,11.40
2018-08-09T10:40:44.809Z,8.90
2018-08-09T10:43:13.395Z,11.77
2018-08-09T10:45:42.033Z,9.03
2018-08-09T10:48:10.633Z,9.30
2018-08-09T10:50:39.244Z,11.47
2018-08-09T10:53:07.813Z,11.67
2018-08-09T10:55:36.429Z,9.17
2018-08-09T10:58:05.185Z,17.53
2018-08-09T11:00:33.778Z,14.23
2018-08-09T11:03:02.381Z,10.10
2018-08-09T11:05:30.971Z,13.07
2018-08-09T11:07:59.558Z,10.23
2018-08-09T11:10:28.192Z,14.17
2018-08-09T11:12:56.787Z,14.27
2018-08-09T11:15:25.381Z,7.80
2018-08-09T11:17:53.956Z,10.70
2018-08-09T11:20:22.599Z,15.30
2018-08-09T11:22:51.218Z,12.90
2018-08-09T11:25:19.810Z,9.13
2018-08-09T11:27:48.397Z,10.70
2018-08-09T11:30:17.017Z,17.33
2018-08-09T11:32:45.578Z,16.13
2018-08-09T11:35:14.166Z,14.83
2018-08-09T11:37:42.745Z,14.50
2018-08-09T11:40:11.345Z,9.20
2018-08-09T11:42:39.914Z,11.30
2018-08-09T11:45:08.497Z,11.57
2018-08-09T11:47:37.096Z,10.80
2018-08-09T11:50:05.945Z,10.23
2018-08-09T11:52:34.536Z,10.93
2018-08-09T11:55:04.901Z,11.90
2018-08-09T11:57:33.493Z,15.93
2018-08-09T12:00:02.140Z,12.50
2018-08-09T12:02:30.737Z,17.10
2018-08-09T12:04:59.313Z,12.63
2018-08-09T12:07:27.909Z,11.00
2018-08-09T12:09:56.485Z,13.37
2018-08-09T12:12:25.102Z,18.03
2018-08-09T12:14:53.710Z,27.40
2018-08-09T12:17:22.337Z,23.13
2018-08-09T12:19:50.986Z,20.93
2018-08-09T12:22:19.613Z,19.77
2018-08-09T12:24:52.715Z,15.60
2018-08-09T12:27:41.443Z,29.20
2018-08-09T12:30:37.543Z,33.60
2018-08-09T12:33:20.608Z,35.43
2018-08-09T12:35:58.543Z,31.13
2018-08-09T12:38:39.039Z,27.60
2018-08-09T12:41:23.068Z,24.37
2018-08-09T12:44:06.422Z,18.67
2018-08-09T12:46:35.100Z,30.37
2018-08-09T12:49:08.644Z,12.33
2018-08-09T12:51:50.331Z,8.67
2018-08-09T12:54:18.948Z,22.77
2018-08-09T12:57:16.585Z,21.63
2018-08-09T13:00:02.170Z,15.13
2018-08-09T13:02:30.825Z,13.57
2018-08-09T13:04:59.744Z,18.37
2018-08-09T13:07:33.729Z,16.63
2018-08-09T13:10:07.529Z,20.53
2018-08-09T13:12:41.749Z,14.80
2018-08-09T13:15:15.986Z,7.20
2018-08-09T13:17:48.588Z,12.90
2018-08-09T13:20:19.409Z,13.90
2018-08-09T13:22:55.553Z,15.43
2018-08-09T13:25:25.205Z,7.43
2018-08-09T13:27:59.811Z,6.73
2018-08-09T13:30:28.506Z,13.93
2018-08-09T13:33:02.026Z,8.67
2018-08-09T13:35:33.647Z,11.53
2018-08-09T13:38:03.615Z,9.37
2018-08-09T13:40:32.661Z,9.17
2018-08-09T13:43:04.305Z,22.53
2018-08-09T13:45:35.277Z,9.43
2018-08-09T13:48:03.929Z,9.53
2018-08-09T13:50:32.520Z,8.40
2018-08-09T13:53:04.274Z,8.37
2018-08-09T13:55:33.355Z,5.70
2018-08-09T13:58:03.485Z,7.40
2018-08-09T14:00:34.429Z,6.60
2018-08-09T14:03:03.125Z,6.83
2018-08-09T14:05:32.974Z,5.13
2018-08-09T14:08:06.069Z,12.10
2018-08-09T14:10:35.983Z,11.87
2018-08-09T14:13:05.146Z,12.07
2018-08-09T14:15:33.930Z,9.77
2018-08-09T14:18:02.629Z,5.17
2018-08-09T14:20:31.220Z,11.43
2018-08-09T14:22:59.854Z,8.10
2018-08-09T14:25:28.545Z,11.47
2018-08-09T14:27:57.184Z,5.87
2018-08-09T14:30:25.815Z,7.83
2018-08-09T14:32:54.495Z,14.10
2018-08-09T14:35:23.081Z,7.20
2018-08-09T14:37:51.727Z,10.80
2018-08-09T14:40:20.310Z,7.80
2018-08-09T14:42:48.970Z,12.63
2018-08-09T14:45:17.628Z,8.83
2018-08-09T14:47:46.359Z,11.23
2018-08-09T14:50:14.987Z,11.97
2018-08-09T14:52:43.597Z,6.33
2018-08-09T14:55:12.980Z,5.83
2018-08-09T14:57:41.878Z,14.03
2018-08-09T15:00:14.930Z,6.53
2018-08-09T15:02:44.025Z,11.97
2018-08-09T15:05:12.921Z,10.07
2018-08-09T15:07:43.068Z,5.73
2018-08-09T15:10:12.137Z,6.33
2018-08-09T15:12:41.397Z,6.57
2018-08-09T15:15:12.285Z,10.43
2018-08-09T15:17:41.211Z,12.13
2018-08-09T15:20:12.741Z,10.77
2018-08-09T15:22:42.181Z,7.73
2018-08-09T15:25:11.441Z,7.10
2018-08-09T15:27:41.051Z,5.87
2018-08-09T15:30:17.929Z,8.43
2018-08-09T15:32:47.048Z,13.70
2018-08-09T15:35:15.825Z,3.47
2018-08-09T15:37:44.822Z,4.83
2018-08-09T15:40:13.953Z,11.43
2018-08-09T15:42:42.657Z,12.93
2018-08-09T15:45:14.609Z,5.83
2018-08-09T15:47:43.517Z,5.80
2018-08-09T15:50:16.591Z,4.03
2018-08-09T15:52:45.264Z,4.00
2018-08-09T15:55:14.933Z,9.07
2018-08-09T15:57:43.565Z,14.30
2018-08-09T16:00:16.342Z,8.87
2018-08-09T16:02:45.134Z,5.33
2018-08-09T16:05:13.806Z,11.17
2018-08-09T16:07:42.597Z,7.90
2018-08-09T16:10:13.354Z,9.57
2018-08-09T16:12:41.941Z,7.90
2018-08-09T16:15:12.734Z,5.77
2018-08-09T16:17:41.377Z,11.13
2018-08-09T16:20:11.114Z,8.63
2018-08-09T16:22:39.784Z,6.67
2018-08-09T16:25:11.285Z,4.27
2018-08-09T16:27:39.937Z,6.10
2018-08-09T16:30:14.780Z,4.20
2018-08-09T16:32:43.525Z,10.97
2018-08-09T16:35:12.752Z,6.80
2018-08-09T16:37:42.034Z,6.10
2018-08-09T16:40:15.645Z,6.60
2018-08-09T16:42:44.364Z,6.43
2018-08-09T16:45:14.837Z,6.77
2018-08-09T16:47:43.461Z,7.50
2018-08-09T16:50:15.741Z,10.10
2018-08-09T16:52:44.755Z,10.70
2018-08-09T16:55:14.546Z,8.77
2018-08-09T16:57:43.251Z,8.53
2018-08-09T17:00:23.025Z,9.77
2018-08-09T17:02:52.629Z,9.73
2018-08-09T17:05:25.488Z,13.07
2018-08-09T17:07:54.213Z,4.60
2018-08-09T17:10:24.027Z,6.37
2018-08-09T17:12:52.799Z,9.43
2018-08-09T17:15:26.508Z,7.90
2018-08-09T17:17:55.621Z,13.23
2018-08-09T17:20:26.573Z,9.77
2018-08-09T17:22:55.421Z,3.73
2018-08-09T17:25:24.144Z,12.40
2018-08-09T17:27:52.869Z,11.57
2018-08-09T17:30:23.320Z,12.13
2018-08-09T17:32:51.934Z,10.57
2018-08-09T17:35:20.769Z,7.40
2018-08-09T17:37:49.489Z,9.80
2018-08-09T17:40:24.881Z,8.77
2018-08-09T17:42:54.395Z,6.73
2018-08-09T17:45:27.725Z,7.63
2018-08-09T17:47:56.360Z,5.10
2018-08-09T17:50:24.960Z,5.43
2018-08-09T17:52:54.123Z,6.40
2018-08-09T17:55:22.740Z,7.23
2018-08-09T17:57:51.364Z,4.53
2018-08-09T18:00:23.859Z,4.30
2018-08-09T18:02:52.817Z,3.70
2018-08-09T18:05:21.586Z,9.57
2018-08-09T18:07:50.464Z,4.00
2018-08-09T18:10:21.165Z,5.40
2018-08-09T18:12:51.049Z,6.20
2018-08-09T18:15:20.258Z,12.80
2018-08-09T18:17:49.039Z,11.80
2018-08-09T18:20:19.146Z,9.33
2018-08-09T18:22:48.537Z,7.60
2018-08-09T18:25:17.278Z,6.27
2018-08-09T18:27:45.901Z,4.03
2018-08-09T18:30:16.410Z,4.80
2018-08-09T18:32:45.153Z,10.70
2018-08-09T18:35:15.857Z,9.17
2018-08-09T18:37:44.517Z,4.87
2018-08-09T18:40:16.517Z,4.63
2018-08-09T18:42:45.198Z,5.07
2018-08-09T18:45:13.836Z,6.27
2018-08-09T18:47:42.511Z,5.13
2018-08-09T18:50:14.271Z,6.80
2018-08-09T18:52:43.109Z,6.23
2018-08-09T18:55:12.257Z,9.33
2018-08-09T18:57:41.121Z,4.27
2018-08-09T19:00:13.176Z,5.00
2018-08-09T19:02:41.849Z,5.27
2018-08-09T19:05:10.501Z,8.00
2018-08-09T19:07:39.134Z,5.37
2018-08-09T19:10:10.030Z,5.97
2018-08-09T19:12:38.656Z,4.13
2018-08-09T19:15:08.394Z,4.10
2018-08-09T19:17:37.590Z,3.60
2018-08-09T19:20:08.166Z,3.63
2018-08-09T19:22:36.821Z,3.60
2018-08-09T19:25:06.381Z,4.00
2018-08-09T19:27:35.102Z,1.93
2018-08-09T19:30:04.016Z,5.20
2018-08-09T19:32:32.700Z,3.33
2018-08-09T19:35:01.378Z,2.77
2018-08-09T19:37:30.102Z,3.40
2018-08-09T19:39:58.690Z,8.50
2018-08-09T19:42:27.311Z,3.60
2018-08-09T19:44:55.945Z,3.03
2018-08-09T19:47:24.575Z,2.90
2018-08-09T19:49:53.170Z,6.17
2018-08-09T19:52:21.777Z,2.00
2018-08-09T19:54:50.426Z,2.57
2018-08-09T19:57:19.095Z,2.20
2018-08-09T19:59:47.827Z,5.27
2018-08-09T20:02:16.441Z,5.63
2018-08-09T20:04:45.030Z,2.33
2018-08-09T20:07:13.603Z,2.73
2018-08-09T20:09:42.197Z,2.40
2018-08-09T20:12:10.786Z,4.20
2018-08-09T20:14:39.421Z,2.03
2018-08-09T20:17:08.029Z,4.53
2018-08-09T20:19:36.641Z,2.17
2018-08-09T20:22:06.828Z,2.87
2018-08-09T20:24:35.426Z,4.47
2018-08-09T20:27:04.141Z,4.37
2018-08-09T20:29:32.783Z,3.30
2018-08-09T20:32:01.371Z,2.50
2018-08-09T20:34:29.987Z,4.03
2018-08-09T20:36:58.569Z,3.27
2018-08-09T20:39:27.197Z,4.03
2018-08-09T20:41:55.816Z,2.70
2018-08-09T20:44:24.464Z,2.33
2018-08-09T20:46:53.075Z,3.93
2018-08-09T20:49:21.746Z,2.13
2018-08-09T20:51:50.315Z,4.33
2018-08-09T20:54:18.954Z,4.13
2018-08-09T20:56:47.584Z,2.50
2018-08-09T20:59:16.242Z,2.30
2018-08-09T21:01:44.878Z,3.93
2018-08-09T21:04:13.542Z,2.87
2018-08-09T21:06:42.133Z,4.13
2018-08-09T21:09:12.012Z,3.73
2018-08-09T21:11:40.753Z,2.47
2018-08-09T21:14:09.442Z,4.10
2018-08-09T21:16:38.125Z,7.93
2018-08-09T21:19:06.782Z,1.80
2018-08-09T21:21:35.378Z,2.97
2018-08-09T21:24:04.071Z,2.53
2018-08-09T21:26:32.697Z,2.60
2018-08-09T21:29:01.346Z,1.80
2018-08-09T21:31:29.932Z,7.20
2018-08-09T21:33:58.535Z,3.23
2018-08-09T21:36:27.181Z,4.20
2018-08-09T21:38:55.833Z,3.93
2018-08-09T21:41:24.409Z,2.67
2018-08-09T21:43:52.992Z,2.40
2018-08-09T21:46:21.610Z,3.97
2018-08-09T21:48:50.209Z,2.70
2018-08-09T21:51:18.833Z,2.20
2018-08-09T21:53:47.422Z,2.13
2018-08-09T21:56:16.014Z,2.50
2018-08-09T21:58:44.641Z,2.70
2018-08-09T22:01:13.369Z,3.77
2018-08-09T22:03:41.989Z,5.10
2018-08-09T22:06:15.788Z,2.60
2018-08-09T22:08:49.606Z,7.03
2018-08-09T22:11:23.521Z,4.40
2018-08-09T22:13:57.361Z,1.70
2018-08-09T22:16:31.203Z,6.10
2018-08-09T22:19:05.160Z,5.97
2018-08-09T22:21:39.081Z,5.43
2018-08-09T22:24:07.686Z,2.40
2018-08-09T22:26:36.333Z,2.80
2018-08-09T22:29:05.046Z,10.83
2018-08-09T22:31:33.685Z,5.07
2018-08-09T22:34:02.282Z,1.40
2018-08-09T22:36:30.939Z,2.20
2018-08-09T22:38:59.537Z,3.63
2018-08-09T22:41:28.201Z,2.03
2018-08-09T22:43:56.801Z,2.60
2018-08-09T22:46:25.430Z,2.77
2018-08-09T22:48:54.052Z,1.80
2018-08-09T22:51:22.656Z,2.20
2018-08-09T22:53:51.280Z,4.60
2018-08-09T22:56:19.893Z,4.53
2018-08-09T22:58:48.469Z,2.13
2018-08-09T23:01:17.182Z,2.37
2018-08-09T23:03:45.867Z,3.50
2018-08-09T23:06:16.023Z,2.13
2018-08-09T23:08:44.697Z,2.20
2018-08-09T23:11:13.315Z,2.23
2018-08-09T23:13:41.930Z,2.93
2018-08-09T23:16:10.601Z,2.20
2018-08-09T23:18:39.211Z,8.30
2018-08-09T23:21:07.810Z,3.60
2018-08-09T23:23:36.491Z,2.90
2018-08-09T23:26:05.145Z,2.93
2018-08-09T23:28:33.829Z,1.77
2018-08-09T23:31:02.465Z,2.97
2018-08-09T23:33:31.101Z,3.83
2018-08-09T23:35:59.712Z,5.73
2018-08-09T23:38:28.348Z,1.70
2018-08-09T23:40:56.997Z,9.27
2018-08-09T23:43:25.608Z,1.77
2018-08-09T23:45:54.234Z,2.70
2018-08-09T23:48:22.845Z,3.20
2018-08-09T23:50:51.422Z,1.43
2018-08-09T23:53:20.030Z,2.27
2018-08-09T23:55:48.613Z,2.30
2018-08-09T23:58:17.245Z,3.77
